createdAt,value
2024-04-23T00:00:12.069Z,94.46
2024-04-23T00:02:39.500Z,93.63
2024-04-23T00:05:07.338Z,92.49
2024-04-23T00:07:34.794Z,89.89
2024-04-23T00:10:02.256Z,89.33
2024-04-23T00:12:29.712Z,90.72
2024-04-23T00:14:57.135Z,90.88
2024-04-23T00:17:24.531Z,90.50
2024-04-23T00:19:52.154Z,90.61
2024-04-23T00:22:19.585Z,90.69
2024-04-23T00:24:47.068Z,90.33
2024-04-23T00:27:14.452Z,89.40
2024-04-23T00:29:42.151Z,89.06
2024-04-23T00:32:09.691Z,88.91
2024-04-23T00:34:37.229Z,89.18
2024-04-23T00:37:04.720Z,88.65
2024-04-23T00:39:32.133Z,88.54
2024-04-23T00:42:00.571Z,88.77
2024-04-23T00:44:28.016Z,88.75
2024-04-23T00:46:56.140Z,87.28
2024-04-23T00:49:23.913Z,87.69
2024-04-23T00:51:53.142Z,87.43
2024-04-23T00:54:25.437Z,87.11
2024-04-23T00:56:57.148Z,86.18
2024-04-23T00:59:25.421Z,85.87
2024-04-23T01:01:54.223Z,85.57
2024-04-23T01:04:21.854Z,85.99
2024-04-23T01:06:51.501Z,85.53
2024-04-23T01:09:22.877Z,85.78
2024-04-23T01:11:51.214Z,85.41
2024-04-23T01:14:19.225Z,84.99
2024-04-23T01:16:50.208Z,84.69
2024-04-23T01:19:36.940Z,85.05
2024-04-23T01:22:31.647Z,85.37
2024-04-23T01:25:13.738Z,84.55
2024-04-23T01:27:43.352Z,84.79
2024-04-23T01:30:13.367Z,84.28
2024-04-23T01:32:43.457Z,84.49
2024-04-23T01:35:12.569Z,83.37
2024-04-23T01:37:51.770Z,84.25
2024-04-23T01:40:20.958Z,83.40
2024-04-23T01:42:50.213Z,82.69
2024-04-23T01:45:18.001Z,82.78
2024-04-23T01:47:47.100Z,83.06
2024-04-23T01:50:15.838Z,82.89
2024-04-23T01:52:44.210Z,83.21
2024-04-23T01:55:12.637Z,82.83
2024-04-23T01:57:40.608Z,83.27
2024-04-23T02:00:14.510Z,82.63
2024-04-23T02:02:45.063Z,82.58
2024-04-23T02:05:15.187Z,82.70
2024-04-23T02:07:43.505Z,82.25
2024-04-23T02:10:10.989Z,82.62
2024-04-23T02:12:41.956Z,81.91
2024-04-23T02:15:09.537Z,81.54
2024-04-23T02:17:38.055Z,81.27
2024-04-23T02:20:07.135Z,80.63
2024-04-23T02:22:35.084Z,80.98
2024-04-23T02:25:02.560Z,80.70
2024-04-23T02:27:29.960Z,80.24
2024-04-23T02:29:57.402Z,80.41
2024-04-23T02:32:24.975Z,79.50
2024-04-23T02:34:52.466Z,79.73
2024-04-23T02:37:19.924Z,78.92
2024-04-23T02:39:47.433Z,79.81
2024-04-23T02:42:14.945Z,81.81
2024-04-23T02:44:42.371Z,81.60
2024-04-23T02:47:09.829Z,81.08
2024-04-23T02:49:37.340Z,80.23
2024-04-23T02:52:05.036Z,79.72
2024-04-23T02:54:32.755Z,80.35
2024-04-23T02:57:00.238Z,80.32
2024-04-23T02:59:27.702Z,79.49
2024-04-23T03:02:08.934Z,79.29
2024-04-23T03:04:36.622Z,79.23
2024-04-23T03:07:04.452Z,79.03
2024-04-23T03:09:31.910Z,78.25
2024-04-23T03:11:59.430Z,78.66
2024-04-23T03:14:27.065Z,78.03
2024-04-23T03:16:54.600Z,77.77
2024-04-23T03:19:22.483Z,78.61
2024-04-23T03:21:58.247Z,77.49
2024-04-23T03:24:26.883Z,77.36
2024-04-23T03:26:54.480Z,77.09
2024-04-23T03:29:22.021Z,77.63
2024-04-23T03:32:05.081Z,77.66
2024-04-23T03:34:33.794Z,77.65
2024-04-23T03:37:01.667Z,76.97
2024-04-23T03:39:29.298Z,77.24
2024-04-23T03:42:02.464Z,77.41
2024-04-23T03:44:30.161Z,77.08
2024-04-23T03:46:58.094Z,77.08
2024-04-23T03:49:25.759Z,77.09
2024-04-23T03:51:53.373Z,76.36
2024-04-23T03:54:20.784Z,76.97
2024-04-23T03:56:48.204Z,76.45
2024-04-23T03:59:16.685Z,75.38
2024-04-23T04:01:44.246Z,75.65
2024-04-23T04:04:30.448Z,76.05
2024-04-23T04:06:57.931Z,75.79
2024-04-23T04:09:25.318Z,75.24
2024-04-23T04:11:56.907Z,75.92
2024-04-23T04:14:24.385Z,75.95
2024-04-23T04:16:51.885Z,76.70
2024-04-23T04:19:19.346Z,76.25
2024-04-23T04:21:46.771Z,75.93
2024-04-23T04:24:14.175Z,75.71
2024-04-23T04:26:42.085Z,75.68
2024-04-23T04:29:09.524Z,75.74
2024-04-23T04:31:36.921Z,75.69
2024-04-23T04:34:04.384Z,75.91
2024-04-23T04:36:31.847Z,74.96
2024-04-23T04:38:59.287Z,74.53
2024-04-23T04:41:30.131Z,75.02
2024-04-23T04:43:57.717Z,75.09
2024-04-23T04:46:25.260Z,74.67
2024-04-23T04:48:52.763Z,74.48
2024-04-23T04:51:21.295Z,74.67
2024-04-23T04:53:49.040Z,73.95
2024-04-23T04:56:16.532Z,73.10
2024-04-23T04:58:43.997Z,72.90
2024-04-23T05:01:11.476Z,72.78
2024-04-23T05:03:38.982Z,72.68
2024-04-23T05:06:06.991Z,72.22
2024-04-23T05:08:34.401Z,71.45
2024-04-23T05:11:01.916Z,71.83
2024-04-23T05:13:29.532Z,71.96
2024-04-23T05:15:56.952Z,72.22
2024-04-23T05:18:24.373Z,71.59
2024-04-23T05:20:51.931Z,72.06
2024-04-23T05:23:19.375Z,71.90
2024-04-23T05:25:46.750Z,71.32
2024-04-23T05:28:14.193Z,71.61
2024-04-23T05:31:00.277Z,71.28
2024-04-23T05:33:27.883Z,71.06
2024-04-23T05:35:55.398Z,70.77
2024-04-23T05:38:22.951Z,70.45
2024-04-23T05:40:50.765Z,70.41
2024-04-23T05:43:18.245Z,71.01
2024-04-23T05:45:45.741Z,69.94
2024-04-23T05:49:09.895Z,69.52
2024-04-23T05:52:33.967Z,69.24
2024-04-23T05:55:41.053Z,69.82
2024-04-23T05:58:10.449Z,69.38
2024-04-23T06:00:38.384Z,69.21
2024-04-23T06:03:06.187Z,69.40
2024-04-23T06:05:33.800Z,69.06
2024-04-23T06:08:01.454Z,68.84
2024-04-23T06:10:29.089Z,68.74
2024-04-23T06:12:56.630Z,69.44
2024-04-23T06:15:24.171Z,68.65
2024-04-23T06:17:51.679Z,68.79
2024-04-23T06:20:19.278Z,68.87
2024-04-23T06:22:50.581Z,68.36
2024-04-23T06:25:18.598Z,68.26
2024-04-23T06:27:46.144Z,67.90
2024-04-23T06:30:18.189Z,67.71
2024-04-23T06:32:46.223Z,66.58
2024-04-23T06:35:17.354Z,66.49
2024-04-23T06:37:45.045Z,66.59
2024-04-23T06:40:12.930Z,66.66
2024-04-23T06:42:41.278Z,66.26
2024-04-23T06:45:09.106Z,67.03
2024-04-23T06:47:36.692Z,66.58
2024-04-23T06:50:06.251Z,65.80
2024-04-23T06:52:33.859Z,65.26
2024-04-23T06:55:03.539Z,64.54
2024-04-23T06:57:31.223Z,64.27
2024-04-23T06:59:58.652Z,63.83
2024-04-23T07:02:26.490Z,63.91
2024-04-23T07:04:54.393Z,63.36
2024-04-23T07:07:21.896Z,62.95
2024-04-23T07:09:49.668Z,62.33
2024-04-23T07:12:17.147Z,60.05
2024-04-23T07:14:44.895Z,60.92
2024-04-23T07:17:12.556Z,59.51
2024-04-23T07:19:40.112Z,58.56
2024-04-23T07:22:07.618Z,59.81
2024-04-23T07:24:35.042Z,58.70
2024-04-23T07:27:02.560Z,60.72
2024-04-23T07:29:30.023Z,60.48
2024-04-23T07:31:57.689Z,59.82
2024-04-23T07:34:25.262Z,60.30
2024-04-23T07:36:52.739Z,59.16
2024-04-23T07:39:20.772Z,58.50
2024-04-23T07:41:48.373Z,60.15
2024-04-23T07:44:15.774Z,58.28
2024-04-23T07:46:44.539Z,58.17
2024-04-23T07:49:12.128Z,58.63
2024-04-23T07:51:39.575Z,58.76
2024-04-23T07:54:07.348Z,57.07
2024-04-23T07:56:34.784Z,54.51
2024-04-23T07:59:02.249Z,55.41
2024-04-23T08:01:29.798Z,56.55
2024-04-23T08:03:57.191Z,54.96
2024-04-23T08:06:24.704Z,55.84
2024-04-23T08:08:52.311Z,53.55
2024-04-23T08:11:19.970Z,55.91
2024-04-23T08:13:47.463Z,52.68
2024-04-23T08:16:15.134Z,55.25
2024-04-23T08:18:42.763Z,54.42
2024-04-23T08:21:12.269Z,54.67
2024-04-23T08:23:39.784Z,53.63
2024-04-23T08:26:16.601Z,53.60
2024-04-23T08:28:45.844Z,52.38
2024-04-23T08:31:13.844Z,51.33
2024-04-23T08:33:41.563Z,52.86
2024-04-23T08:36:09.314Z,54.20
2024-04-23T08:38:36.769Z,53.76
2024-04-23T08:41:06.403Z,53.80
2024-04-23T08:43:38.833Z,52.32
2024-04-23T08:46:06.974Z,53.07
2024-04-23T08:48:36.534Z,51.94
2024-04-23T08:51:06.480Z,50.42
2024-04-23T08:53:34.927Z,51.08
2024-04-23T08:56:13.628Z,48.41
2024-04-23T08:58:44.488Z,48.94
2024-04-23T09:01:14.616Z,49.48
2024-04-23T09:03:49.195Z,49.16
2024-04-23T09:06:17.486Z,52.06
2024-04-23T09:08:46.643Z,51.92
2024-04-23T09:11:15.698Z,51.53
2024-04-23T09:13:43.598Z,51.82
2024-04-23T09:16:11.738Z,52.22
2024-04-23T09:18:39.656Z,51.55
2024-04-23T09:21:07.992Z,51.31
2024-04-23T09:23:35.611Z,51.79
2024-04-23T09:26:05.392Z,52.46
2024-04-23T09:28:36.894Z,51.20
2024-04-23T09:31:06.489Z,52.05
2024-04-23T09:33:34.653Z,52.88
2024-04-23T09:36:08.901Z,51.64
2024-04-23T09:38:41.558Z,50.98
2024-04-23T09:41:11.302Z,50.78
2024-04-23T09:43:39.390Z,51.38
2024-04-23T09:46:09.974Z,49.69
2024-04-23T09:48:41.167Z,50.69
2024-04-23T09:51:10.660Z,48.92
2024-04-23T09:53:40.037Z,49.91
2024-04-23T09:56:14.249Z,48.73
2024-04-23T09:58:42.217Z,49.94
2024-04-23T10:01:11.004Z,50.35
2024-04-23T10:03:47.050Z,48.13
2024-04-23T10:06:24.853Z,46.81
2024-04-23T10:09:14.648Z,46.70
2024-04-23T10:11:55.034Z,48.35
2024-04-23T10:14:32.158Z,47.70
2024-04-23T10:17:23.740Z,49.03
2024-04-23T10:19:52.148Z,47.62
2024-04-23T10:22:19.670Z,46.94
2024-04-23T10:24:47.959Z,48.42
2024-04-23T10:27:15.757Z,44.81
2024-04-23T10:29:44.896Z,45.50
2024-04-23T10:32:14.081Z,45.26
2024-04-23T10:34:44.846Z,44.23
2024-04-23T10:37:13.984Z,45.73
2024-04-23T10:39:43.221Z,45.48
2024-04-23T10:42:11.987Z,44.88
2024-04-23T10:44:40.248Z,46.21
2024-04-23T10:47:07.904Z,43.20
2024-04-23T10:49:39.471Z,44.66
2024-04-23T10:52:07.150Z,44.14
2024-04-23T10:54:35.335Z,44.97
2024-04-23T10:57:09.306Z,44.60
2024-04-23T10:59:39.475Z,42.84
2024-04-23T11:02:11.696Z,43.83
2024-04-23T11:04:47.969Z,42.42
2024-04-23T11:07:27.593Z,43.28
2024-04-23T11:10:02.486Z,44.72
2024-04-23T11:12:34.110Z,44.66
2024-04-23T11:15:02.677Z,45.07
2024-04-23T11:17:41.979Z,45.54
2024-04-23T11:20:10.643Z,46.86
2024-04-23T11:22:54.688Z,45.33
2024-04-23T11:25:35.789Z,46.64
2024-04-23T11:28:05.302Z,46.74
2024-04-23T11:30:33.591Z,47.79
2024-04-23T11:33:01.398Z,48.00
2024-04-23T11:35:29.340Z,48.04
2024-04-23T11:38:00.520Z,48.47
2024-04-23T11:40:28.051Z,47.86
2024-04-23T11:42:55.553Z,49.06
2024-04-23T11:45:22.971Z,48.30
2024-04-23T11:47:53.377Z,49.30
2024-04-23T11:50:21.089Z,47.89
2024-04-23T11:52:49.351Z,47.32
2024-04-23T11:55:19.413Z,47.35
2024-04-23T11:57:46.874Z,48.28
2024-04-23T12:00:14.586Z,48.32
2024-04-23T12:02:42.720Z,48.53
2024-04-23T12:05:11.011Z,47.01
2024-04-23T12:07:40.872Z,47.59
2024-04-23T12:10:10.581Z,46.03
2024-04-23T12:12:38.283Z,46.58
2024-04-23T12:15:07.560Z,47.99
2024-04-23T12:17:40.397Z,47.52
2024-04-23T12:20:12.571Z,47.14
2024-04-23T12:22:46.303Z,47.75
2024-04-23T12:25:16.712Z,45.80
2024-04-23T12:27:50.430Z,47.52
2024-04-23T12:30:20.962Z,48.13
2024-04-23T12:32:51.513Z,47.90
2024-04-23T12:35:22.656Z,48.08
2024-04-23T12:38:01.623Z,47.72
2024-04-23T12:40:29.198Z,46.96
2024-04-23T12:42:59.305Z,46.18
2024-04-23T12:45:26.734Z,45.83
2024-04-23T12:47:58.190Z,46.18
2024-04-23T12:50:26.176Z,46.62
2024-04-23T12:52:53.684Z,46.16
2024-04-23T12:55:21.442Z,46.25
2024-04-23T12:57:48.884Z,46.86
2024-04-23T13:00:16.915Z,45.71
2024-04-23T13:02:44.490Z,46.57
2024-04-23T13:05:12.139Z,45.97
2024-04-23T13:07:39.672Z,45.50
2024-04-23T13:10:08.138Z,47.02
2024-04-23T13:12:35.603Z,47.67
2024-04-23T13:15:03.271Z,47.26
2024-04-23T13:17:30.959Z,45.50
2024-04-23T13:20:01.220Z,47.09
2024-04-23T13:22:29.490Z,47.00
2024-04-23T13:24:56.910Z,47.98
2024-04-23T13:27:24.309Z,47.47
2024-04-23T13:29:51.803Z,47.51
2024-04-23T13:32:19.648Z,47.13
2024-04-23T13:34:47.518Z,46.58
2024-04-23T13:37:15.472Z,47.07
2024-04-23T13:39:42.926Z,47.65
2024-04-23T13:42:10.448Z,46.23
2024-04-23T13:44:37.867Z,47.03
2024-04-23T13:47:05.853Z,47.43
2024-04-23T13:49:36.847Z,47.51
2024-04-23T13:52:04.786Z,46.71
2024-04-23T13:54:32.642Z,46.40
2024-04-23T13:57:00.193Z,47.62
2024-04-23T13:59:27.878Z,47.87
2024-04-23T14:01:55.406Z,47.45
2024-04-23T14:04:23.059Z,47.85
2024-04-23T14:06:54.255Z,48.16
2024-04-23T14:09:22.077Z,47.84
2024-04-23T14:11:49.972Z,47.84
2024-04-23T14:14:17.621Z,47.80
2024-04-23T14:16:45.258Z,48.26
2024-04-23T14:19:12.949Z,48.55
2024-04-23T14:21:42.237Z,48.52
2024-04-23T14:24:09.901Z,48.42
2024-04-23T14:26:37.299Z,48.30
2024-04-23T14:29:04.863Z,48.54
2024-04-23T14:31:33.328Z,49.10
2024-04-23T14:34:02.002Z,49.52
2024-04-23T14:36:31.540Z,49.14
2024-04-23T14:38:59.543Z,49.14
2024-04-23T14:41:26.976Z,48.63
2024-04-23T14:43:54.517Z,48.54
2024-04-23T14:46:22.665Z,49.01
2024-04-23T14:48:50.046Z,49.19
2024-04-23T14:51:17.754Z,49.38
2024-04-23T14:53:45.240Z,49.38
2024-04-23T14:56:12.900Z,49.04
2024-04-23T14:58:40.570Z,49.73
2024-04-23T15:01:14.520Z,49.25
2024-04-23T15:03:42.319Z,49.75
2024-04-23T15:06:11.409Z,49.58
2024-04-23T15:08:41.832Z,49.42
2024-04-23T15:11:11.101Z,49.85
2024-04-23T15:13:39.389Z,49.84
2024-04-23T15:16:10.435Z,50.38
2024-04-23T15:18:42.620Z,50.21
2024-04-23T15:21:13.188Z,50.08
2024-04-23T15:23:40.944Z,50.27
2024-04-23T15:26:08.625Z,50.08
2024-04-23T15:28:42.737Z,49.52
2024-04-23T15:31:11.250Z,49.93
2024-04-23T15:33:41.298Z,49.91
2024-04-23T15:36:22.751Z,49.70
2024-04-23T15:38:57.258Z,49.89
2024-04-23T15:41:24.801Z,49.43
2024-04-23T15:43:52.862Z,49.16
2024-04-23T15:46:20.662Z,49.94
2024-04-23T15:48:48.246Z,49.91
2024-04-23T15:51:15.865Z,50.02
2024-04-23T15:53:43.318Z,49.92
2024-04-23T15:56:12.651Z,50.01
2024-04-23T15:58:40.916Z,50.15
2024-04-23T16:01:10.942Z,49.76
2024-04-23T16:03:42.825Z,49.99
2024-04-23T16:06:18.937Z,49.43
2024-04-23T16:08:48.820Z,49.99
2024-04-23T16:11:16.379Z,50.16
2024-04-23T16:13:44.748Z,49.99
2024-04-23T16:16:12.248Z,50.27
2024-04-23T16:18:39.790Z,50.29
2024-04-23T16:21:08.164Z,50.25
2024-04-23T16:23:38.283Z,49.97
2024-04-23T16:26:08.649Z,49.85
2024-04-23T16:28:39.512Z,50.19
2024-04-23T16:31:09.042Z,49.93
2024-04-23T16:33:38.742Z,50.22
2024-04-23T16:36:08.810Z,49.75
2024-04-23T16:38:37.906Z,50.10
2024-04-23T16:41:10.209Z,50.03
2024-04-23T16:43:38.341Z,49.51
2024-04-23T16:46:10.368Z,49.18
2024-04-23T16:48:38.314Z,49.69
2024-04-23T16:51:09.841Z,49.68
2024-04-23T16:53:39.961Z,49.53
2024-04-23T16:56:11.230Z,49.69
2024-04-23T16:58:38.860Z,49.59
2024-04-23T17:01:10.569Z,49.48
2024-04-23T17:03:39.463Z,49.79
2024-04-23T17:06:07.448Z,49.85
2024-04-23T17:08:34.947Z,49.88
2024-04-23T17:11:04.454Z,49.56
2024-04-23T17:13:33.721Z,49.75
2024-04-23T17:16:18.100Z,49.93
2024-04-23T17:18:45.972Z,49.80
2024-04-23T17:21:13.514Z,50.16
2024-04-23T17:23:41.158Z,50.04
2024-04-23T17:26:08.856Z,50.19
2024-04-23T17:28:36.407Z,50.20
2024-04-23T17:31:05.193Z,50.50
2024-04-23T17:33:32.947Z,50.70
2024-04-23T17:36:00.938Z,50.64
2024-04-23T17:38:28.511Z,50.79
2024-04-23T17:40:56.074Z,51.09
2024-04-23T17:43:23.697Z,51.07
2024-04-23T17:45:51.112Z,50.96
2024-04-23T17:48:18.768Z,51.43
2024-04-23T17:50:46.175Z,51.03
2024-04-23T17:53:16.351Z,51.07
2024-04-23T17:55:45.907Z,50.68
2024-04-23T17:58:17.056Z,50.60
2024-04-23T18:00:44.611Z,51.00
2024-04-23T18:03:12.291Z,50.70
2024-04-23T18:05:39.734Z,50.84
2024-04-23T18:08:07.615Z,50.77
2024-04-23T18:10:35.139Z,50.81
2024-04-23T18:13:02.535Z,51.07
2024-04-23T18:15:30.101Z,51.03
2024-04-23T18:17:58.899Z,51.39
2024-04-23T18:20:26.448Z,51.34
2024-04-23T18:22:55.315Z,51.48
2024-04-23T18:25:23.077Z,51.50
2024-04-23T18:27:51.418Z,51.57
2024-04-23T18:30:18.861Z,51.58
2024-04-23T18:32:50.208Z,51.83
2024-04-23T18:35:18.293Z,51.78
2024-04-23T18:37:45.795Z,51.85
2024-04-23T18:40:14.178Z,52.15
2024-04-23T18:42:45.314Z,52.03
2024-04-23T18:45:12.732Z,51.99
2024-04-23T18:47:40.268Z,52.12
2024-04-23T18:50:08.457Z,52.49
2024-04-23T18:52:36.065Z,52.52
2024-04-23T18:55:03.696Z,52.33
2024-04-23T18:57:32.159Z,52.27
2024-04-23T18:59:59.673Z,52.25
2024-04-23T19:02:27.222Z,52.26
2024-04-23T19:04:54.718Z,52.14
2024-04-23T19:07:22.115Z,52.00
2024-04-23T19:09:51.539Z,52.07
2024-04-23T19:12:19.549Z,52.14
2024-04-23T19:14:47.346Z,52.00
2024-04-23T19:17:15.023Z,52.11
2024-04-23T19:19:42.789Z,51.94
2024-04-23T19:22:10.982Z,52.30
2024-04-23T19:24:38.379Z,52.19
2024-04-23T19:27:06.002Z,52.33
2024-04-23T19:29:38.823Z,52.51
2024-04-23T19:32:07.009Z,52.31
2024-04-23T19:34:34.511Z,52.12
2024-04-23T19:37:03.508Z,52.08
2024-04-23T19:39:32.042Z,52.39
2024-04-23T19:41:59.479Z,52.47
2024-04-23T19:44:26.954Z,52.34
2024-04-23T19:46:54.409Z,51.89
2024-04-23T19:49:22.042Z,51.96
2024-04-23T19:51:49.548Z,51.97
2024-04-23T19:54:16.949Z,51.74
2024-04-23T19:56:50.195Z,51.94
2024-04-23T19:59:17.976Z,51.77
2024-04-23T20:01:45.472Z,51.93
2024-04-23T20:04:13.374Z,51.96
2024-04-23T20:06:40.991Z,51.91
2024-04-23T20:09:10.053Z,52.13
2024-04-23T20:11:37.615Z,52.05
2024-04-23T20:14:05.461Z,52.05
2024-04-23T20:16:33.014Z,52.02
2024-04-23T20:19:00.476Z,51.84
2024-04-23T20:21:28.171Z,51.84
2024-04-23T20:23:56.369Z,51.92
2024-04-23T20:26:24.951Z,52.12
2024-04-23T20:28:54.120Z,51.96
2024-04-23T20:31:22.731Z,52.08
2024-04-23T20:33:50.745Z,51.79
2024-04-23T20:36:18.486Z,51.96
2024-04-23T20:38:46.091Z,51.85
2024-04-23T20:41:14.764Z,51.88
2024-04-23T20:43:42.566Z,51.50
2024-04-23T20:46:10.186Z,51.79
2024-04-23T20:48:37.950Z,52.10
2024-04-23T20:51:05.910Z,51.86
2024-04-23T20:53:33.455Z,52.02
2024-04-23T20:56:08.788Z,52.05
2024-04-23T20:58:36.805Z,52.25
2024-04-23T21:01:12.236Z,52.16
2024-04-23T21:03:40.954Z,52.37
2024-04-23T21:06:12.966Z,52.27
2024-04-23T21:08:42.345Z,52.67
2024-04-23T21:11:18.873Z,53.32
2024-04-23T21:13:46.890Z,52.96
2024-04-23T21:16:15.731Z,53.05
2024-04-23T21:18:45.602Z,53.08
2024-04-23T21:21:14.824Z,53.19
2024-04-23T21:23:43.174Z,53.58
2024-04-23T21:26:10.950Z,53.06
2024-04-23T21:28:38.588Z,53.31
2024-04-23T21:31:06.353Z,52.99
2024-04-23T21:33:34.300Z,53.15
2024-04-23T21:36:09.338Z,53.01
2024-04-23T21:38:38.576Z,53.46
2024-04-23T21:41:11.127Z,53.13
2024-04-23T21:43:40.621Z,53.17
2024-04-23T21:46:13.065Z,53.19
2024-04-23T21:48:40.636Z,53.03
2024-04-23T21:51:13.460Z,53.12
2024-04-23T21:53:41.980Z,53.03
2024-04-23T21:56:10.324Z,53.28
2024-04-23T21:58:39.316Z,53.21
2024-04-23T22:01:18.187Z,53.42
2024-04-23T22:03:48.110Z,53.11
2024-04-23T22:06:16.165Z,53.43
2024-04-23T22:08:43.755Z,53.45
2024-04-23T22:11:11.359Z,53.55
2024-04-23T22:13:38.985Z,53.55
2024-04-23T22:16:06.683Z,53.73
2024-04-23T22:18:34.269Z,53.67
2024-04-23T22:21:01.810Z,53.95
2024-04-23T22:23:29.330Z,53.85
2024-04-23T22:25:56.864Z,53.54
2024-04-23T22:28:24.386Z,53.64
2024-04-23T22:30:51.877Z,53.96
2024-04-23T22:33:19.372Z,54.19
2024-04-23T22:35:46.849Z,54.13
2024-04-23T22:38:14.313Z,54.38
2024-04-23T22:40:41.749Z,54.13
2024-04-23T22:43:09.232Z,54.02
2024-04-23T22:45:36.712Z,54.09
2024-04-23T22:48:04.728Z,53.98
2024-04-23T22:50:32.234Z,53.97
2024-04-23T22:52:59.767Z,54.02
2024-04-23T22:55:27.242Z,54.14
2024-04-23T22:57:54.601Z,53.99
2024-04-23T23:00:22.076Z,53.99
2024-04-23T23:02:49.485Z,53.90
2024-04-23T23:05:17.114Z,53.88
2024-04-23T23:07:44.729Z,54.09
2024-04-23T23:10:12.152Z,54.19
2024-04-23T23:12:39.552Z,54.27
2024-04-23T23:15:07.387Z,54.06
2024-04-23T23:17:34.854Z,54.18
2024-04-23T23:20:02.430Z,54.16
2024-04-23T23:22:29.870Z,54.03
2024-04-23T23:24:57.285Z,54.02
2024-04-23T23:27:24.820Z,53.96
2024-04-23T23:29:52.305Z,54.14
2024-04-23T23:32:19.884Z,54.39
2024-04-23T23:34:47.421Z,54.62
2024-04-23T23:37:14.938Z,54.62
2024-04-23T23:39:42.419Z,54.65
2024-04-23T23:42:09.926Z,54.92
2024-04-23T23:44:37.351Z,54.88
2024-04-23T23:47:04.838Z,54.99
2024-04-23T23:49:32.292Z,55.12
2024-04-23T23:51:59.772Z,54.83
2024-04-23T23:54:27.173Z,54.93
2024-04-23T23:56:54.740Z,55.10
2024-04-23T23:59:22.294Z,54.90
